This is the latest recevied weather packets stored in our database for station/object KB9GXK. If no packets are shown the sender has not sent any weather packets the latest 1 day(s).
| Time | Temp. | Humidity | Pressure | Rain* | Wind** | Luminosity | Snow |
|---|---|---|---|---|---|---|---|
| 1778007063 | 16.11° C | 33% | 1009.5 hPa | 0 mm | 1.34 m/s, 259° | 443 W/m² | - |
| 1778006760 | 15.56° C | 32% | 1009.4 hPa | 0 mm | 1.34 m/s, 213° | 421 W/m² | - |
| 1778006457 | 15.56° C | 31% | 1009.6 hPa | 0 mm | 1.34 m/s, 270° | 633 W/m² | - |
| 1778006153 | 16.11° C | 31% | 1009.3 hPa | 0 mm | 1.34 m/s, 336° | 671 W/m² | - |
| 1778005851 | 16.11° C | 30% | 1009.4 hPa | 0 mm | 2.24 m/s, 284° | 544 W/m² | - |
| 1778005547 | 16.11° C | 33% | 1009.6 hPa | 0 mm | 0.45 m/s, 302° | 753 W/m² | - |
| 1778005244 | 15° C | 31% | 1009.2 hPa | 0 mm | 0.45 m/s, 101° | 621 W/m² | - |
| 1778004941 | 16.11° C | 30% | 1009.3 hPa | 0 mm | 0.45 m/s, 302° | 548 W/m² | - |
| 1778004638 | 14.44° C | 33% | 1009.2 hPa | 0 mm | 0.45 m/s, 164° | 580 W/m² | - |
| 1778004334 | 15° C | 32% | 1009.1 hPa | 0 mm | 2.24 m/s, 227° | 614 W/m² | - |
| 1778004032 | 14.44° C | 34% | 1009.1 hPa | 0 mm | 1.34 m/s, 233° | 453 W/m² | - |
| 1778003732 | 14.44° C | 33% | 1009.1 hPa | 0 mm | 0.89 m/s, 263° | 452 W/m² | - |
| 1778003429 | 14.44° C | 34% | 1009 hPa | 0 mm | 0.89 m/s, 268° | 497 W/m² | - |
| 1778003126 | 14.44° C | 32% | 1009.2 hPa | 0 mm | 4.02 m/s, 242° | 486 W/m² | - |
| 1778002822 | 14.44° C | 32% | 1009.4 hPa | 0 mm | 2.24 m/s, 324° | 504 W/m² | - |
| 1778002519 | 14.44° C | 35% | 1009 hPa | 0 mm | 0.89 m/s, 248° | 382 W/m² | - |
| 1778002216 | 13.89° C | 36% | 1009 hPa | 0 mm | 1.34 m/s, 252° | 346 W/m² | - |
| 1778001914 | 13.89° C | 36% | 1009.1 hPa | 0 mm | 1.34 m/s, 223° | 307 W/m² | - |
| 1778001609 | 14.44° C | 35% | 1009.1 hPa | 0 mm | 1.34 m/s, 205° | 387 W/m² | - |
| 1778001305 | 13.89° C | 36% | 1009.3 hPa | 0 mm | 1.79 m/s, 289° | 392 W/m² | - |
| 1778001002 | 13.89° C | 35% | 1009.3 hPa | 0 mm | 3.13 m/s, 236° | 381 W/m² | - |
| 1778000699 | 13.89° C | 36% | 1009.2 hPa | 0 mm | 1.34 m/s, 298° | 391 W/m² | - |
| 1778000394 | 13.89° C | 36% | 1009.1 hPa | 0 mm | 1.34 m/s, 247° | 434 W/m² | - |
| 1778000090 | 13.89° C | 36% | 1009.1 hPa | 0 mm | 1.79 m/s, 207° | 487 W/m² | - |
| 1777999786 | 13.89° C | 34% | 1009 hPa | 0 mm | 2.68 m/s, 296° | 392 W/m² | - |
* Rain latest hour (hover to see other rain measurements)
** Current wind speed in m/s (hover to see current wind gust speed)